sensor_id;sensor_type;location;lat;lon;timestamp;pressure;altitude;pressure_sealevel;temperature;humidity
12775;BME280;6451;42.630;23.382;2022-07-15T00:00:00;94501.59;;;17.10;100.00
12775;BME280;6451;42.630;23.382;2022-07-15T00:02:27;94484.66;;;16.98;100.00
12775;BME280;6451;42.630;23.382;2022-07-15T00:04:54;94498.03;;;17.06;100.00
12775;BME280;6451;42.630;23.382;2022-07-15T00:07:21;94424.47;;;16.53;100.00
12775;BME280;6451;42.630;23.382;2022-07-15T00:09:48;94501.13;;;17.01;100.00
12775;BME280;6451;42.630;23.382;2022-07-15T00:12:35;94468.13;;;16.80;100.00
12775;BME280;6451;42.630;23.382;2022-07-15T00:15:03;94497.19;;;17.02;100.00
12775;BME280;6451;42.630;23.382;2022-07-15T00:17:32;94499.91;;;16.91;100.00
12775;BME280;6451;42.630;23.382;2022-07-15T00:19:59;94473.81;;;16.57;100.00
12775;BME280;6451;42.630;23.382;2022-07-15T00:22:26;94444.66;;;16.31;100.00
12775;BME280;6451;42.630;23.382;2022-07-15T00:24:53;94503.28;;;16.71;100.00
12775;BME280;6451;42.630;23.382;2022-07-15T00:27:19;94481.66;;;16.62;100.00
12775;BME280;6451;42.630;23.382;2022-07-15T00:29:48;94494.63;;;16.68;100.00
12775;BME280;6451;42.630;23.382;2022-07-15T00:32:15;94487.88;;;16.55;100.00
12775;BME280;6451;42.630;23.382;2022-07-15T00:34:42;94499.66;;;16.63;100.00
12775;BME280;6451;42.630;23.382;2022-07-15T00:37:09;94488.69;;;16.59;100.00
12775;BME280;6451;42.630;23.382;2022-07-15T00:39:36;94512.72;;;16.73;100.00
12775;BME280;6451;42.630;23.382;2022-07-15T00:42:03;94464.28;;;16.36;100.00
12775;BME280;6451;42.630;23.382;2022-07-15T00:44:30;94503.16;;;16.56;100.00
12775;BME280;6451;42.630;23.382;2022-07-15T00:46:59;94499.66;;;16.63;100.00
12775;BME280;6451;42.630;23.382;2022-07-15T00:49:26;94476.50;;;16.50;100.00
12775;BME280;6451;42.630;23.382;2022-07-15T00:51:55;94495.97;;;16.92;100.00
12775;BME280;6451;42.630;23.382;2022-07-15T00:54:24;94416.09;;;16.32;100.00
12775;BME280;6451;42.630;23.382;2022-07-15T00:56:53;94421.06;;;16.16;100.00
12775;BME280;6451;42.630;23.382;2022-07-15T00:59:23;94476.06;;;16.48;100.00
12775;BME280;6451;42.630;23.382;2022-07-15T01:01:52;94483.22;;;16.63;100.00
12775;BME280;6451;42.630;23.382;2022-07-15T01:04:21;94457.66;;;16.41;100.00
12775;BME280;6451;42.630;23.382;2022-07-15T01:06:49;94469.03;;;16.47;100.00
12775;BME280;6451;42.630;23.382;2022-07-15T01:09:16;94433.19;;;16.15;100.00
12775;BME280;6451;42.630;23.382;2022-07-15T01:11:44;94480.31;;;16.38;100.00
12775;BME280;6451;42.630;23.382;2022-07-15T01:14:12;94476.00;;;16.33;100.00
12775;BME280;6451;42.630;23.382;2022-07-15T01:16:39;94462.59;;;16.21;100.00
12775;BME280;6451;42.630;23.382;2022-07-15T01:19:07;94456.59;;;16.08;100.00
12775;BME280;6451;42.630;23.382;2022-07-15T01:21:35;94448.78;;;16.07;100.00
12775;BME280;6451;42.630;23.382;2022-07-15T01:24:03;94472.75;;;16.24;100.00
12775;BME280;6451;42.630;23.382;2022-07-15T01:26:30;94473.19;;;16.26;100.00
12775;BME280;6451;42.630;23.382;2022-07-15T01:28:57;94465.19;;;16.03;100.00
12775;BME280;6451;42.630;23.382;2022-07-15T01:31:24;94456.03;;;15.89;100.00
12775;BME280;6451;42.630;23.382;2022-07-15T01:33:51;94469.81;;;15.96;100.00
12775;BME280;6451;42.630;23.382;2022-07-15T01:36:19;94462.56;;;15.77;100.00
12775;BME280;6451;42.630;23.382;2022-07-15T01:38:47;94451.03;;;15.61;100.00
12775;BME280;6451;42.630;23.382;2022-07-15T01:41:15;94414.63;;;15.53;100.00
12775;BME280;6451;42.630;23.382;2022-07-15T01:43:42;94458.19;;;15.69;100.00
12775;BME280;6451;42.630;23.382;2022-07-15T01:46:10;94443.69;;;15.65;100.00
12775;BME280;6451;42.630;23.382;2022-07-15T01:48:37;94450.19;;;15.53;100.00
12775;BME280;6451;42.630;23.382;2022-07-15T01:51:22;94473.44;;;15.70;100.00
12775;BME280;6451;42.630;23.382;2022-07-15T01:53:50;94467.09;;;15.62;100.00
12775;BME280;6451;42.630;23.382;2022-07-15T01:56:17;94471.88;;;15.69;100.00
12775;BME280;6451;42.630;23.382;2022-07-15T01:58:43;94478.66;;;15.82;100.00
12775;BME280;6451;42.630;23.382;2022-07-15T02:01:11;94471.09;;;15.68;100.00
12775;BME280;6451;42.630;23.382;2022-07-15T02:03:38;94454.75;;;15.42;100.00
12775;BME280;6451;42.630;23.382;2022-07-15T02:06:06;94483.47;;;15.58;100.00
12775;BME280;6451;42.630;23.382;2022-07-15T02:08:33;94486.94;;;15.55;100.00
12775;BME280;6451;42.630;23.382;2022-07-15T02:11:01;94469.50;;;15.34;100.00
12775;BME280;6451;42.630;23.382;2022-07-15T02:13:28;94455.59;;;15.12;100.00
12775;BME280;6451;42.630;23.382;2022-07-15T02:15:55;94448.56;;;15.15;100.00
12775;BME280;6451;42.630;23.382;2022-07-15T02:18:22;94410.13;;;14.97;100.00
12775;BME280;6451;42.630;23.382;2022-07-15T02:20:49;94473.38;;;15.33;100.00
12775;BME280;6451;42.630;23.382;2022-07-15T02:23:16;94482.72;;;15.28;100.00
12775;BME280;6451;42.630;23.382;2022-07-15T02:25:43;94417.16;;;14.68;100.00
12775;BME280;6451;42.630;23.382;2022-07-15T02:28:11;94489.78;;;15.02;100.00
12775;BME280;6451;42.630;23.382;2022-07-15T02:30:42;94486.56;;;14.93;100.00
12775;BME280;6451;42.630;23.382;2022-07-15T02:33:10;94399.56;;;14.39;100.00
12775;BME280;6451;42.630;23.382;2022-07-15T02:35:40;94484.97;;;14.89;100.00
12775;BME280;6451;42.630;23.382;2022-07-15T02:38:07;94487.72;;;14.92;100.00
12775;BME280;6451;42.630;23.382;2022-07-15T02:40:34;94449.06;;;14.64;100.00
12775;BME280;6451;42.630;23.382;2022-07-15T02:43:02;94490.75;;;14.87;100.00
12775;BME280;6451;42.630;23.382;2022-07-15T02:45:35;94484.84;;;14.82;100.00
12775;BME280;6451;42.630;23.382;2022-07-15T02:48:02;94485.69;;;14.86;100.00
12775;BME280;6451;42.630;23.382;2022-07-15T02:50:30;94415.13;;;14.35;100.00
12775;BME280;6451;42.630;23.382;2022-07-15T02:52:57;94332.66;;;13.69;100.00
12775;BME280;6451;42.630;23.382;2022-07-15T02:55:23;94486.69;;;14.74;100.00
12775;BME280;6451;42.630;23.382;2022-07-15T02:57:50;94476.88;;;14.69;100.00
12775;BME280;6451;42.630;23.382;2022-07-15T03:00:18;94484.06;;;14.81;100.00
12775;BME280;6451;42.630;23.382;2022-07-15T03:02:47;94462.91;;;14.48;100.00
12775;BME280;6451;42.630;23.382;2022-07-15T03:05:16;94472.16;;;14.66;100.00
12775;BME280;6451;42.630;23.382;2022-07-15T03:07:44;94408.44;;;14.32;100.00
12775;BME280;6451;42.630;23.382;2022-07-15T03:10:11;94456.25;;;14.45;100.00
12775;BME280;6451;42.630;23.382;2022-07-15T03:12:39;94417.16;;;14.15;100.00
12775;BME280;6451;42.630;23.382;2022-07-15T03:15:07;94485.22;;;14.54;100.00
12775;BME280;6451;42.630;23.382;2022-07-15T03:17:34;94475.84;;;14.51;100.00
12775;BME280;6451;42.630;23.382;2022-07-15T03:20:04;94477.50;;;14.59;100.00
12775;BME280;6451;42.630;23.382;2022-07-15T03:22:31;94471.00;;;14.67;100.00
12775;BME280;6451;42.630;23.382;2022-07-15T03:24:59;94472.94;;;14.67;100.00
12775;BME280;6451;42.630;23.382;2022-07-15T03:27:26;94474.25;;;14.77;100.00
12775;BME280;6451;42.630;23.382;2022-07-15T03:29:53;94473.69;;;14.94;100.00
12775;BME280;6451;42.630;23.382;2022-07-15T03:32:20;94449.06;;;14.90;100.00
12775;BME280;6451;42.630;23.382;2022-07-15T03:34:47;94445.28;;;15.02;100.00
12775;BME280;6451;42.630;23.382;2022-07-15T03:37:15;94423.00;;;14.96;100.00
12775;BME280;6451;42.630;23.382;2022-07-15T03:39:42;94466.56;;;15.16;100.00
12775;BME280;6451;42.630;23.382;2022-07-15T03:42:09;94463.44;;;15.17;100.00
12775;BME280;6451;42.630;23.382;2022-07-15T03:44:37;94412.19;;;14.77;100.00
12775;BME280;6451;42.630;23.382;2022-07-15T03:47:03;94464.59;;;15.16;100.00
12775;BME280;6451;42.630;23.382;2022-07-15T03:49:31;94378.03;;;14.60;100.00
12775;BME280;6451;42.630;23.382;2022-07-15T03:51:58;94462.03;;;15.30;100.00
12775;BME280;6451;42.630;23.382;2022-07-15T03:54:27;94442.38;;;15.55;100.00
12775;BME280;6451;42.630;23.382;2022-07-15T03:56:56;94369.72;;;15.17;100.00
12775;BME280;6451;42.630;23.382;2022-07-15T03:59:23;94444.66;;;15.83;100.00
12775;BME280;6451;42.630;23.382;2022-07-15T04:01:50;94419.72;;;15.92;100.00
12775;BME280;6451;42.630;23.382;2022-07-15T04:04:17;94442.03;;;15.97;100.00
12775;BME280;6451;42.630;23.382;2022-07-15T04:06:44;94452.28;;;16.04;100.00
12775;BME280;6451;42.630;23.382;2022-07-15T04:09:11;94425.69;;;16.08;100.00
12775;BME280;6451;42.630;23.382;2022-07-15T04:11:41;94466.72;;;16.49;100.00
12775;BME280;6451;42.630;23.382;2022-07-15T04:14:09;94452.63;;;16.50;100.00
12775;BME280;6451;42.630;23.382;2022-07-15T04:16:37;94471.19;;;16.71;100.00
12775;BME280;6451;42.630;23.382;2022-07-15T04:19:04;94324.97;;;15.73;100.00
12775;BME280;6451;42.630;23.382;2022-07-15T04:21:31;94474.75;;;16.79;100.00
12775;BME280;6451;42.630;23.382;2022-07-15T04:23:59;94478.00;;;16.99;100.00
12775;BME280;6451;42.630;23.382;2022-07-15T04:26:26;94470.28;;;17.18;100.00
12775;BME280;6451;42.630;23.382;2022-07-15T04:28:55;94415.31;;;16.93;100.00
12775;BME280;6451;42.630;23.382;2022-07-15T04:31:23;94453.88;;;17.29;100.00
12775;BME280;6451;42.630;23.382;2022-07-15T04:33:50;94448.44;;;17.47;100.00
12775;BME280;6451;42.630;23.382;2022-07-15T04:36:17;94464.16;;;17.61;100.00
12775;BME280;6451;42.630;23.382;2022-07-15T04:38:45;94478.75;;;17.83;100.00
12775;BME280;6451;42.630;23.382;2022-07-15T04:41:12;94476.44;;;17.95;100.00
12775;BME280;6451;42.630;23.382;2022-07-15T04:43:40;94469.38;;;18.09;100.00
12775;BME280;6451;42.630;23.382;2022-07-15T04:46:08;94459.97;;;18.17;100.00
12775;BME280;6451;42.630;23.382;2022-07-15T04:48:35;94481.16;;;18.30;100.00
12775;BME280;6451;42.630;23.382;2022-07-15T04:51:20;94475.69;;;18.34;100.00
12775;BME280;6451;42.630;23.382;2022-07-15T04:53:47;94470.19;;;18.59;100.00
12775;BME280;6451;42.630;23.382;2022-07-15T04:56:14;94474.09;;;18.58;100.00
12775;BME280;6451;42.630;23.382;2022-07-15T04:58:42;94472.13;;;18.55;100.00
12775;BME280;6451;42.630;23.382;2022-07-15T05:01:10;94465.09;;;18.50;100.00
12775;BME280;6451;42.630;23.382;2022-07-15T05:03:38;94477.63;;;18.62;100.00
12775;BME280;6451;42.630;23.382;2022-07-15T05:06:05;94467.44;;;18.73;100.00
12775;BME280;6451;42.630;23.382;2022-07-15T05:08:32;94483.94;;;18.87;100.00
12775;BME280;6451;42.630;23.382;2022-07-15T05:10:59;94478.44;;;18.77;100.00
12775;BME280;6451;42.630;23.382;2022-07-15T05:13:27;94477.25;;;18.88;100.00
12775;BME280;6451;42.630;23.382;2022-07-15T05:15:54;94475.66;;;18.91;100.00
12775;BME280;6451;42.630;23.382;2022-07-15T05:18:22;94465.84;;;18.83;100.00
12775;BME280;6451;42.630;23.382;2022-07-15T05:20:51;94472.47;;;19.07;100.00
12775;BME280;6451;42.630;23.382;2022-07-15T05:23:18;94476.00;;;19.11;100.00
12775;BME280;6451;42.630;23.382;2022-07-15T05:25:45;94361.44;;;18.51;100.00
12775;BME280;6451;42.630;23.382;2022-07-15T05:28:12;94479.88;;;19.31;100.00
12775;BME280;6451;42.630;23.382;2022-07-15T05:30:39;94486.56;;;19.30;100.00
12775;BME280;6451;42.630;23.382;2022-07-15T05:33:06;94479.41;;;19.51;100.00
12775;BME280;6451;42.630;23.382;2022-07-15T05:35:34;94475.09;;;19.57;100.00
12775;BME280;6451;42.630;23.382;2022-07-15T05:38:01;94477.44;;;19.58;100.00
12775;BME280;6451;42.630;23.382;2022-07-15T05:40:29;94473.06;;;19.68;100.00
12775;BME280;6451;42.630;23.382;2022-07-15T05:42:56;94414.19;;;19.37;100.00
12775;BME280;6451;42.630;23.382;2022-07-15T05:45:23;94458.50;;;19.67;100.00
12775;BME280;6451;42.630;23.382;2022-07-15T05:47:51;94472.53;;;19.94;100.00
12775;BME280;6451;42.630;23.382;2022-07-15T05:50:20;94466.59;;;19.99;100.00
12775;BME280;6451;42.630;23.382;2022-07-15T05:52:48;94476.28;;;20.22;100.00
12775;BME280;6451;42.630;23.382;2022-07-15T05:55:15;94466.41;;;20.28;100.00
12775;BME280;6451;42.630;23.382;2022-07-15T05:57:42;94463.72;;;20.17;100.00
12775;BME280;6451;42.630;23.382;2022-07-15T06:00:10;94477.41;;;20.28;100.00
12775;BME280;6451;42.630;23.382;2022-07-15T06:02:37;94471.81;;;20.42;100.00
12775;BME280;6451;42.630;23.382;2022-07-15T06:05:05;94470.59;;;20.50;100.00
12775;BME280;6451;42.630;23.382;2022-07-15T06:07:32;94468.84;;;20.71;100.00
12775;BME280;6451;42.630;23.382;2022-07-15T06:10:01;94458.38;;;20.51;100.00
12775;BME280;6451;42.630;23.382;2022-07-15T06:12:28;94469.03;;;20.91;100.00
12775;BME280;6451;42.630;23.382;2022-07-15T06:14:55;94468.13;;;21.04;100.00
12775;BME280;6451;42.630;23.382;2022-07-15T06:17:22;94465.34;;;21.04;100.00
12775;BME280;6451;42.630;23.382;2022-07-15T06:19:51;94462.09;;;21.17;100.00
12775;BME280;6451;42.630;23.382;2022-07-15T06:22:18;94472.31;;;21.16;100.00
12775;BME280;6451;42.630;23.382;2022-07-15T06:24:44;94469.97;;;21.52;100.00
12775;BME280;6451;42.630;23.382;2022-07-15T06:27:14;94467.69;;;21.09;100.00
12775;BME280;6451;42.630;23.382;2022-07-15T06:29:42;94468.22;;;21.31;100.00
12775;BME280;6451;42.630;23.382;2022-07-15T06:32:09;94464.44;;;21.52;100.00
12775;BME280;6451;42.630;23.382;2022-07-15T06:34:37;94468.94;;;21.70;100.00
12775;BME280;6451;42.630;23.382;2022-07-15T06:37:04;94474.19;;;21.91;100.00
12775;BME280;6451;42.630;23.382;2022-07-15T06:39:31;94468.31;;;21.89;100.00
12775;BME280;6451;42.630;23.382;2022-07-15T06:41:58;94480.06;;;21.97;100.00
12775;BME280;6451;42.630;23.382;2022-07-15T06:44:27;94454.34;;;22.00;100.00
12775;BME280;6451;42.630;23.382;2022-07-15T06:46:54;94475.66;;;22.30;100.00
12775;BME280;6451;42.630;23.382;2022-07-15T06:49:21;94468.66;;;22.22;100.00
12775;BME280;6451;42.630;23.382;2022-07-15T06:51:48;94477.41;;;22.43;100.00
12775;BME280;6451;42.630;23.382;2022-07-15T06:54:15;94456.78;;;22.25;100.00
12775;BME280;6451;42.630;23.382;2022-07-15T06:56:44;94451.97;;;22.02;100.00
12775;BME280;6451;42.630;23.382;2022-07-15T06:59:11;94457.16;;;22.27;100.00
12775;BME280;6451;42.630;23.382;2022-07-15T07:01:39;94463.06;;;22.75;100.00
12775;BME280;6451;42.630;23.382;2022-07-15T07:04:06;94463.78;;;22.80;100.00
12775;BME280;6451;42.630;23.382;2022-07-15T07:06:33;94464.63;;;23.00;100.00
12775;BME280;6451;42.630;23.382;2022-07-15T07:09:00;94469.09;;;22.70;100.00
12775;BME280;6451;42.630;23.382;2022-07-15T07:11:27;94474.88;;;22.80;100.00
12775;BME280;6451;42.630;23.382;2022-07-15T07:13:54;94470.38;;;22.89;100.00
12775;BME280;6451;42.630;23.382;2022-07-15T07:16:21;94472.78;;;22.87;100.00
12775;BME280;6451;42.630;23.382;2022-07-15T07:18:49;94465.88;;;23.19;100.00
12775;BME280;6451;42.630;23.382;2022-07-15T07:21:16;94464.50;;;22.84;100.00
12775;BME280;6451;42.630;23.382;2022-07-15T07:23:49;94468.72;;;22.92;100.00
12775;BME280;6451;42.630;23.382;2022-07-15T07:26:17;94444.56;;;22.96;99.16
12775;BME280;6451;42.630;23.382;2022-07-15T07:28:44;94458.53;;;22.89;100.00
12775;BME280;6451;42.630;23.382;2022-07-15T07:31:12;94459.88;;;23.24;98.49
12775;BME280;6451;42.630;23.382;2022-07-15T07:33:40;94461.44;;;23.25;97.14
12775;BME280;6451;42.630;23.382;2022-07-15T07:36:08;94463.19;;;23.35;98.99
12775;BME280;6451;42.630;23.382;2022-07-15T07:38:35;94455.97;;;23.61;96.16
12775;BME280;6451;42.630;23.382;2022-07-15T07:41:02;94465.03;;;23.22;92.52
12775;BME280;6451;42.630;23.382;2022-07-15T07:43:29;94444.44;;;23.43;95.57
12775;BME280;6451;42.630;23.382;2022-07-15T07:45:58;94448.44;;;23.42;93.14
12775;BME280;6451;42.630;23.382;2022-07-15T07:48:25;94456.34;;;23.63;89.33
12775;BME280;6451;42.630;23.382;2022-07-15T07:50:52;94453.13;;;23.65;89.18
12775;BME280;6451;42.630;23.382;2022-07-15T07:53:20;94443.91;;;23.71;90.97
12775;BME280;6451;42.630;23.382;2022-07-15T07:55:48;94457.59;;;23.58;88.98
12775;BME280;6451;42.630;23.382;2022-07-15T07:58:15;94466.56;;;23.86;87.23
12775;BME280;6451;42.630;23.382;2022-07-15T08:00:44;94448.56;;;23.74;82.02
12775;BME280;6451;42.630;23.382;2022-07-15T08:03:11;94452.91;;;23.75;81.40
12775;BME280;6451;42.630;23.382;2022-07-15T08:05:39;94457.81;;;23.88;81.12
12775;BME280;6451;42.630;23.382;2022-07-15T08:08:10;94463.41;;;24.20;81.32
12775;BME280;6451;42.630;23.382;2022-07-15T08:10:39;94451.84;;;24.42;78.14
12775;BME280;6451;42.630;23.382;2022-07-15T08:13:06;94437.69;;;24.20;77.25
12775;BME280;6451;42.630;23.382;2022-07-15T08:15:33;94452.31;;;24.56;77.32
12775;BME280;6451;42.630;23.382;2022-07-15T08:18:00;94443.03;;;24.47;77.51
12775;BME280;6451;42.630;23.382;2022-07-15T08:20:29;94450.47;;;24.66;77.30
12775;BME280;6451;42.630;23.382;2022-07-15T08:22:57;94438.75;;;24.75;76.76
12775;BME280;6451;42.630;23.382;2022-07-15T08:25:26;94443.03;;;24.47;77.72
12775;BME280;6451;42.630;23.382;2022-07-15T08:27:54;94420.72;;;24.50;74.12
12775;BME280;6451;42.630;23.382;2022-07-15T08:30:22;94434.53;;;24.70;70.80
12775;BME280;6451;42.630;23.382;2022-07-15T08:32:49;94438.31;;;24.92;70.00
12775;BME280;6451;42.630;23.382;2022-07-15T08:35:16;94431.19;;;25.08;69.74
12775;BME280;6451;42.630;23.382;2022-07-15T08:37:43;94435.50;;;25.25;66.81
12775;BME280;6451;42.630;23.382;2022-07-15T08:40:11;94439.19;;;25.35;65.83
12775;BME280;6451;42.630;23.382;2022-07-15T08:42:38;94438.72;;;25.07;70.03
12775;BME280;6451;42.630;23.382;2022-07-15T08:45:10;94433.25;;;25.20;65.47
12775;BME280;6451;42.630;23.382;2022-07-15T08:47:38;94420.38;;;25.26;69.39
12775;BME280;6451;42.630;23.382;2022-07-15T08:50:05;94429.75;;;25.45;71.50
12775;BME280;6451;42.630;23.382;2022-07-15T08:52:36;94416.44;;;25.40;67.70
12775;BME280;6451;42.630;23.382;2022-07-15T08:55:05;94431.03;;;25.57;66.45
12775;BME280;6451;42.630;23.382;2022-07-15T08:57:32;94424.31;;;25.41;64.67
12775;BME280;6451;42.630;23.382;2022-07-15T08:59:59;94416.72;;;25.71;63.54
12775;BME280;6451;42.630;23.382;2022-07-15T09:02:27;94416.66;;;25.87;62.77
12775;BME280;6451;42.630;23.382;2022-07-15T09:05:22;94429.88;;;25.83;60.64
12775;BME280;6451;42.630;23.382;2022-07-15T09:08:07;94415.47;;;26.01;61.04
12775;BME280;6451;42.630;23.382;2022-07-15T09:10:57;94423.34;;;26.28;60.29
12775;BME280;6451;42.630;23.382;2022-07-15T09:13:27;94404.44;;;26.10;60.77
12775;BME280;6451;42.630;23.382;2022-07-15T09:15:56;94364.91;;;25.64;60.13
12775;BME280;6451;42.630;23.382;2022-07-15T09:18:27;94402.31;;;25.89;59.79
12775;BME280;6451;42.630;23.382;2022-07-15T09:20:55;94419.03;;;26.01;59.15
12775;BME280;6451;42.630;23.382;2022-07-15T09:23:24;94406.69;;;26.15;59.01
12775;BME280;6451;42.630;23.382;2022-07-15T09:25:58;94416.59;;;26.16;60.88
12775;BME280;6451;42.630;23.382;2022-07-15T09:28:36;94409.00;;;26.17;59.13
12775;BME280;6451;42.630;23.382;2022-07-15T09:31:04;94396.88;;;26.23;58.16
12775;BME280;6451;42.630;23.382;2022-07-15T09:34:02;94405.78;;;26.31;60.11
12775;BME280;6451;42.630;23.382;2022-07-15T09:36:31;94406.56;;;26.44;60.93
12775;BME280;6451;42.630;23.382;2022-07-15T09:38:59;94401.44;;;26.55;58.40
12775;BME280;6451;42.630;23.382;2022-07-15T09:41:30;94400.75;;;26.51;59.51
12775;BME280;6451;42.630;23.382;2022-07-15T09:44:00;94409.50;;;26.75;59.37
12775;BME280;6451;42.630;23.382;2022-07-15T09:46:29;94391.72;;;26.60;59.02
12775;BME280;6451;42.630;23.382;2022-07-15T09:49:07;94376.25;;;26.59;58.62
12775;BME280;6451;42.630;23.382;2022-07-15T09:51:43;94399.69;;;26.83;60.71
12775;BME280;6451;42.630;23.382;2022-07-15T09:54:11;94397.31;;;26.95;57.50
12775;BME280;6451;42.630;23.382;2022-07-15T09:56:39;94389.09;;;26.91;57.56
12775;BME280;6451;42.630;23.382;2022-07-15T09:59:06;94398.63;;;27.03;56.79
12775;BME280;6451;42.630;23.382;2022-07-15T10:01:34;94395.53;;;27.01;57.31
12775;BME280;6451;42.630;23.382;2022-07-15T10:04:01;94395.38;;;27.17;54.48
12775;BME280;6451;42.630;23.382;2022-07-15T10:06:32;94300.84;;;26.31;54.60
12775;BME280;6451;42.630;23.382;2022-07-15T10:09:02;94390.28;;;27.03;56.50
12775;BME280;6451;42.630;23.382;2022-07-15T10:11:30;94372.44;;;27.13;54.68
12775;BME280;6451;42.630;23.382;2022-07-15T10:14:26;94395.84;;;27.37;55.79
12775;BME280;6451;42.630;23.382;2022-07-15T10:17:25;94398.94;;;27.18;51.32
12775;BME280;6451;42.630;23.382;2022-07-15T10:22:56;94342.69;;;26.75;50.99
12775;BME280;6451;42.630;23.382;2022-07-15T10:25:52;94383.06;;;27.27;50.99
12775;BME280;6451;42.630;23.382;2022-07-15T10:28:24;94386.91;;;27.42;51.79
12775;BME280;6451;42.630;23.382;2022-07-15T10:31:15;94386.88;;;27.64;52.30
12775;BME280;6451;42.630;23.382;2022-07-15T10:34:19;94389.28;;;27.75;50.99
12775;BME280;6451;42.630;23.382;2022-07-15T10:37:04;94381.53;;;27.70;52.77
12775;BME280;6451;42.630;23.382;2022-07-15T10:39:51;94383.31;;;27.64;52.33
12775;BME280;6451;42.630;23.382;2022-07-15T10:42:19;94372.72;;;27.72;51.97
12775;BME280;6451;42.630;23.382;2022-07-15T10:45:07;94369.72;;;27.97;50.61
12775;BME280;6451;42.630;23.382;2022-07-15T10:47:34;94366.03;;;27.69;49.70
12775;BME280;6451;42.630;23.382;2022-07-15T10:50:35;94370.00;;;27.90;48.94
12775;BME280;6451;42.630;23.382;2022-07-15T10:53:17;94369.84;;;27.84;50.58
12775;BME280;6451;42.630;23.382;2022-07-15T10:55:47;94360.47;;;28.00;49.47
12775;BME280;6451;42.630;23.382;2022-07-15T10:58:16;94366.53;;;28.08;48.09
12775;BME280;6451;42.630;23.382;2022-07-15T11:00:45;94358.41;;;27.91;48.06
12775;BME280;6451;42.630;23.382;2022-07-15T11:03:14;94363.38;;;27.96;47.80
12775;BME280;6451;42.630;23.382;2022-07-15T11:06:04;94361.75;;;28.17;48.29
12775;BME280;6451;42.630;23.382;2022-07-15T11:08:52;94360.59;;;28.37;47.67
12775;BME280;6451;42.630;23.382;2022-07-15T11:11:47;94369.78;;;28.46;46.14
12775;BME280;6451;42.630;23.382;2022-07-15T11:14:40;94364.03;;;28.41;45.66
12775;BME280;6451;42.630;23.382;2022-07-15T11:17:08;94355.81;;;28.37;45.24
12775;BME280;6451;42.630;23.382;2022-07-15T11:19:37;94325.72;;;28.32;44.19
12775;BME280;6451;42.630;23.382;2022-07-15T11:22:07;94313.47;;;28.39;44.47
12775;BME280;6451;42.630;23.382;2022-07-15T11:24:35;94356.91;;;28.49;42.11
12775;BME280;6451;42.630;23.382;2022-07-15T11:27:03;94361.53;;;28.43;42.22
12775;BME280;6451;42.630;23.382;2022-07-15T11:29:43;94360.50;;;28.18;41.95
12775;BME280;6451;42.630;23.382;2022-07-15T11:32:12;94342.22;;;28.17;42.91
12775;BME280;6451;42.630;23.382;2022-07-15T11:34:42;94352.22;;;28.37;42.04
12775;BME280;6451;42.630;23.382;2022-07-15T11:37:10;94347.91;;;28.45;37.94
12775;BME280;6451;42.630;23.382;2022-07-15T11:39:38;94345.25;;;28.41;39.28
12775;BME280;6451;42.630;23.382;2022-07-15T11:42:17;94342.47;;;28.50;40.75
12775;BME280;6451;42.630;23.382;2022-07-15T11:45:31;94340.03;;;28.62;38.48
12775;BME280;6451;42.630;23.382;2022-07-15T11:47:58;94332.75;;;28.83;39.11
12775;BME280;6451;42.630;23.382;2022-07-15T11:50:26;94330.59;;;28.87;39.20
12775;BME280;6451;42.630;23.382;2022-07-15T11:52:55;94332.13;;;28.88;39.99
12775;BME280;6451;42.630;23.382;2022-07-15T11:55:22;94321.25;;;28.90;42.10
12775;BME280;6451;42.630;23.382;2022-07-15T11:57:50;94324.72;;;29.03;41.26
12775;BME280;6451;42.630;23.382;2022-07-15T12:00:18;94335.22;;;28.90;40.92
12775;BME280;6451;42.630;23.382;2022-07-15T12:03:05;94332.31;;;28.84;40.67
12775;BME280;6451;42.630;23.382;2022-07-15T12:05:32;94315.72;;;28.99;40.80
12775;BME280;6451;42.630;23.382;2022-07-15T12:07:59;94302.19;;;28.97;39.81
12775;BME280;6451;42.630;23.382;2022-07-15T12:10:33;94310.91;;;28.99;39.54
12775;BME280;6451;42.630;23.382;2022-07-15T12:13:02;94309.03;;;29.05;39.65
12775;BME280;6451;42.630;23.382;2022-07-15T12:15:30;94317.09;;;29.22;39.43
12775;BME280;6451;42.630;23.382;2022-07-15T12:17:57;94311.78;;;29.51;38.37
12775;BME280;6451;42.630;23.382;2022-07-15T12:20:24;94313.31;;;29.61;39.15
12775;BME280;6451;42.630;23.382;2022-07-15T12:23:02;94253.72;;;29.37;39.98
12775;BME280;6451;42.630;23.382;2022-07-15T12:25:28;94310.88;;;29.27;39.55
12775;BME280;6451;42.630;23.382;2022-07-15T12:27:56;94320.97;;;29.33;40.95
12775;BME280;6451;42.630;23.382;2022-07-15T12:30:32;94311.16;;;29.29;39.26
12775;BME280;6451;42.630;23.382;2022-07-15T12:33:16;94297.53;;;29.03;38.44
12775;BME280;6451;42.630;23.382;2022-07-15T12:35:44;94310.41;;;29.28;38.61
12775;BME280;6451;42.630;23.382;2022-07-15T12:38:25;94308.84;;;29.46;39.17
12775;BME280;6451;42.630;23.382;2022-07-15T12:40:52;94314.88;;;29.62;38.59
12775;BME280;6451;42.630;23.382;2022-07-15T12:43:19;94304.16;;;29.61;37.89
12775;BME280;6451;42.630;23.382;2022-07-15T12:45:48;94316.09;;;29.71;38.23
12775;BME280;6451;42.630;23.382;2022-07-15T12:48:15;94303.41;;;29.94;37.90
12775;BME280;6451;42.630;23.382;2022-07-15T12:50:57;94308.53;;;30.28;37.06
12775;BME280;6451;42.630;23.382;2022-07-15T12:53:26;94302.66;;;30.26;38.07
12775;BME280;6451;42.630;23.382;2022-07-15T12:55:57;94304.75;;;30.40;37.83
12775;BME280;6451;42.630;23.382;2022-07-15T12:58:28;94299.63;;;30.39;37.71
12775;BME280;6451;42.630;23.382;2022-07-15T13:01:06;94292.66;;;30.34;36.62
12775;BME280;6451;42.630;23.382;2022-07-15T13:03:33;94294.88;;;30.78;36.86
12775;BME280;6451;42.630;23.382;2022-07-15T13:06:00;94308.28;;;31.13;35.83
12775;BME280;6451;42.630;23.382;2022-07-15T13:08:29;94303.84;;;31.06;36.97
12775;BME280;6451;42.630;23.382;2022-07-15T13:10:57;94253.34;;;30.77;37.11